Pierre Regional Airport
KPIR : now visible

Airfield :











YOU CAN JOIN US ON...

 
LOGIN :

Register | Disclaimer

   EN    FR    IT 

 









Legend :    VFR   Marginal VFR   IFR   Intensive IFR   Very Intensive IFR
Visi :
Ceiling :
>= 8 km
>= 3000ft
5 to 8 km
1000 to 3000 ft
1500m to 5 km
500 to 1000 ft
800 to 1500m
200 to 500 ft
< 800m
< 200 ft
Symbols :   Thunderstorms  Fog  Heavy snow  Heavy precipitations  Wind > 20 kt






- Airport Elevation : 1744 ft
- IATA code : PIR


KPIR - Pierre Regional

CURRENT METAR :
  • 240453Z AUTO 06003KT 10SM CLR 06/M02 A3014 RMK AO2 SLP209 T00561022

EXPIRED METARs :
  • 240353Z AUTO 07003KT 10SM CLR 07/M01 A3013 RMK AO2 SLP206 T00721011
  • 240253Z AUTO 05004KT 10SM CLR 08/M01 A3011 RMK AO2 SLP200 T00831011 53015
  • 240153Z AUTO 04004KT 10SM CLR 11/M01 A3008 RMK AO2 SLP190 T01111011
  • 240053Z AUTO 29003KT 10SM CLR 15/M01 A3007 RMK AO2 SLP184 T01501006

TAF KPIR
Valid from the 24 at 06:00 until the 25 at 06:00 UTC


240528Z 2406/2506 08005KT P6SM SCT200
FM241400 14009KT P6SM SCT230
FM241800 16016G23KT P6SM BKN100
FM250100 13018G28KT P6SM SCT240
KZMP FIR / North America



MET'MAP, your aeronautical weather chart ! - Copyright ORBIFLY December 2007 - Disclaimer

ORBIFLY MET'MAP TEAM :

Programming & Development : Alexandra Zaïnal
Original concept : Baudouin d'Aumeries
Technical & hardware support : Manuel Goepfert
Assistance : Marc-Olivier Méhu




SOURCES & CREDITS :

   NOAA       Earth
Advisory